sensor_id;sensor_type;location;lat;lon;timestamp;P1;durP1;ratioP1;P2;durP2;ratioP2
1701;SDS011;848;48.354;10.064;2022-10-28T00:01:24;14.60;;;6.43;;
1701;SDS011;848;48.354;10.064;2022-10-28T00:03:52;16.45;;;6.90;;
1701;SDS011;848;48.354;10.064;2022-10-28T00:06:23;12.40;;;6.28;;
1701;SDS011;848;48.354;10.064;2022-10-28T00:08:51;14.80;;;7.45;;
1701;SDS011;848;48.354;10.064;2022-10-28T00:11:19;16.67;;;6.82;;
1701;SDS011;848;48.354;10.064;2022-10-28T00:13:48;12.57;;;6.78;;
1701;SDS011;848;48.354;10.064;2022-10-28T00:16:18;14.00;;;6.55;;
1701;SDS011;848;48.354;10.064;2022-10-28T00:18:47;11.55;;;6.45;;
1701;SDS011;848;48.354;10.064;2022-10-28T00:21:17;10.98;;;6.28;;
1701;SDS011;848;48.354;10.064;2022-10-28T00:23:46;11.18;;;6.10;;
1701;SDS011;848;48.354;10.064;2022-10-28T00:26:14;13.05;;;6.25;;
1701;SDS011;848;48.354;10.064;2022-10-28T00:28:44;12.88;;;6.07;;
1701;SDS011;848;48.354;10.064;2022-10-28T00:31:13;12.70;;;6.22;;
1701;SDS011;848;48.354;10.064;2022-10-28T00:33:41;16.50;;;6.70;;
1701;SDS011;848;48.354;10.064;2022-10-28T00:36:10;12.35;;;6.45;;
1701;SDS011;848;48.354;10.064;2022-10-28T00:38:39;14.40;;;7.05;;
1701;SDS011;848;48.354;10.064;2022-10-28T00:41:09;12.25;;;6.18;;
1701;SDS011;848;48.354;10.064;2022-10-28T00:43:38;12.68;;;6.72;;
1701;SDS011;848;48.354;10.064;2022-10-28T00:46:11;12.70;;;6.45;;
1701;SDS011;848;48.354;10.064;2022-10-28T00:48:42;12.50;;;5.78;;
1701;SDS011;848;48.354;10.064;2022-10-28T00:51:10;11.10;;;6.43;;
1701;SDS011;848;48.354;10.064;2022-10-28T00:53:39;17.98;;;7.68;;
1701;SDS011;848;48.354;10.064;2022-10-28T00:56:10;13.18;;;6.70;;
1701;SDS011;848;48.354;10.064;2022-10-28T00:58:38;13.25;;;7.00;;
1701;SDS011;848;48.354;10.064;2022-10-28T01:01:05;14.07;;;6.30;;
1701;SDS011;848;48.354;10.064;2022-10-28T01:03:32;12.85;;;5.78;;
1701;SDS011;848;48.354;10.064;2022-10-28T01:06:01;13.35;;;6.65;;
1701;SDS011;848;48.354;10.064;2022-10-28T01:08:28;12.73;;;7.00;;
1701;SDS011;848;48.354;10.064;2022-10-28T01:11:09;12.93;;;6.40;;
1701;SDS011;848;48.354;10.064;2022-10-28T01:14:00;11.45;;;5.57;;
1701;SDS011;848;48.354;10.064;2022-10-28T01:16:40;15.45;;;7.28;;
1701;SDS011;848;48.354;10.064;2022-10-28T01:19:21;15.32;;;7.65;;
1701;SDS011;848;48.354;10.064;2022-10-28T01:22:22;14.60;;;6.80;;
1701;SDS011;848;48.354;10.064;2022-10-28T01:24:57;13.93;;;6.80;;
1701;SDS011;848;48.354;10.064;2022-10-28T01:30:32;18.33;;;9.55;;
1701;SDS011;848;48.354;10.064;2022-10-28T01:33:35;15.20;;;7.40;;
1701;SDS011;848;48.354;10.064;2022-10-28T01:36:07;15.98;;;7.75;;
1701;SDS011;848;48.354;10.064;2022-10-28T01:38:40;14.98;;;6.57;;
1701;SDS011;848;48.354;10.064;2022-10-28T01:41:16;13.68;;;7.13;;
1701;SDS011;848;48.354;10.064;2022-10-28T01:43:52;13.77;;;7.20;;
1701;SDS011;848;48.354;10.064;2022-10-28T01:46:24;13.35;;;7.03;;
1701;SDS011;848;48.354;10.064;2022-10-28T01:48:57;13.85;;;7.35;;
1701;SDS011;848;48.354;10.064;2022-10-28T01:51:28;12.60;;;7.22;;
1701;SDS011;848;48.354;10.064;2022-10-28T01:53:57;16.38;;;6.93;;
1701;SDS011;848;48.354;10.064;2022-10-28T01:56:29;14.98;;;7.25;;
1701;SDS011;848;48.354;10.064;2022-10-28T01:58:58;12.57;;;7.45;;
1701;SDS011;848;48.354;10.064;2022-10-28T02:01:27;11.73;;;6.68;;
1701;SDS011;848;48.354;10.064;2022-10-28T02:03:55;12.48;;;7.10;;
1701;SDS011;848;48.354;10.064;2022-10-28T02:06:25;13.70;;;6.90;;
1701;SDS011;848;48.354;10.064;2022-10-28T02:11:55;12.27;;;6.13;;
1701;SDS011;848;48.354;10.064;2022-10-28T02:14:37;16.15;;;7.10;;
1701;SDS011;848;48.354;10.064;2022-10-28T02:17:17;12.88;;;6.82;;
1701;SDS011;848;48.354;10.064;2022-10-28T02:19:52;15.27;;;6.63;;
1701;SDS011;848;48.354;10.064;2022-10-28T02:22:28;17.92;;;7.18;;
1701;SDS011;848;48.354;10.064;2022-10-28T02:25:02;13.18;;;6.55;;
1701;SDS011;848;48.354;10.064;2022-10-28T02:27:36;13.75;;;7.32;;
1701;SDS011;848;48.354;10.064;2022-10-28T02:30:10;13.02;;;6.82;;
1701;SDS011;848;48.354;10.064;2022-10-28T02:32:42;13.20;;;6.82;;
1701;SDS011;848;48.354;10.064;2022-10-28T02:35:14;14.25;;;6.85;;
1701;SDS011;848;48.354;10.064;2022-10-28T02:37:44;12.30;;;6.45;;
1701;SDS011;848;48.354;10.064;2022-10-28T02:40:13;11.95;;;6.55;;
1701;SDS011;848;48.354;10.064;2022-10-28T02:42:44;15.10;;;7.65;;
1701;SDS011;848;48.354;10.064;2022-10-28T02:45:15;13.20;;;7.22;;
1701;SDS011;848;48.354;10.064;2022-10-28T02:47:45;16.67;;;7.40;;
1701;SDS011;848;48.354;10.064;2022-10-28T02:50:19;15.65;;;7.75;;
1701;SDS011;848;48.354;10.064;2022-10-28T02:52:50;18.55;;;7.90;;
1701;SDS011;848;48.354;10.064;2022-10-28T02:55:21;14.18;;;7.20;;
1701;SDS011;848;48.354;10.064;2022-10-28T02:57:55;15.40;;;7.65;;
1701;SDS011;848;48.354;10.064;2022-10-28T03:00:23;12.20;;;6.82;;
1701;SDS011;848;48.354;10.064;2022-10-28T03:02:50;18.92;;;8.88;;
1701;SDS011;848;48.354;10.064;2022-10-28T03:05:19;13.95;;;8.13;;
1701;SDS011;848;48.354;10.064;2022-10-28T03:07:46;13.90;;;7.22;;
1701;SDS011;848;48.354;10.064;2022-10-28T03:10:13;15.68;;;7.50;;
1701;SDS011;848;48.354;10.064;2022-10-28T03:12:40;15.27;;;7.30;;
1701;SDS011;848;48.354;10.064;2022-10-28T03:15:07;13.90;;;7.95;;
1701;SDS011;848;48.354;10.064;2022-10-28T03:17:35;16.35;;;7.20;;
1701;SDS011;848;48.354;10.064;2022-10-28T03:20:02;15.82;;;7.45;;
1701;SDS011;848;48.354;10.064;2022-10-28T03:22:30;15.43;;;6.93;;
1701;SDS011;848;48.354;10.064;2022-10-28T03:24:57;15.45;;;7.25;;
1701;SDS011;848;48.354;10.064;2022-10-28T03:27:24;14.50;;;6.80;;
1701;SDS011;848;48.354;10.064;2022-10-28T03:29:51;21.17;;;7.45;;
1701;SDS011;848;48.354;10.064;2022-10-28T03:32:18;15.50;;;6.47;;
1701;SDS011;848;48.354;10.064;2022-10-28T03:34:45;15.35;;;7.35;;
1701;SDS011;848;48.354;10.064;2022-10-28T03:37:12;14.18;;;8.70;;
1701;SDS011;848;48.354;10.064;2022-10-28T03:39:40;11.20;;;6.00;;
1701;SDS011;848;48.354;10.064;2022-10-28T03:42:07;13.43;;;6.53;;
1701;SDS011;848;48.354;10.064;2022-10-28T03:44:34;17.23;;;6.72;;
1701;SDS011;848;48.354;10.064;2022-10-28T03:47:01;14.10;;;6.72;;
1701;SDS011;848;48.354;10.064;2022-10-28T03:49:28;13.15;;;6.68;;
1701;SDS011;848;48.354;10.064;2022-10-28T03:51:55;10.80;;;5.95;;
1701;SDS011;848;48.354;10.064;2022-10-28T03:54:21;13.45;;;6.15;;
1701;SDS011;848;48.354;10.064;2022-10-28T03:56:50;14.27;;;7.10;;
1701;SDS011;848;48.354;10.064;2022-10-28T03:59:17;12.85;;;6.70;;
1701;SDS011;848;48.354;10.064;2022-10-28T04:01:43;14.05;;;7.10;;
1701;SDS011;848;48.354;10.064;2022-10-28T04:04:10;16.08;;;5.90;;
1701;SDS011;848;48.354;10.064;2022-10-28T04:06:37;12.00;;;5.55;;
1701;SDS011;848;48.354;10.064;2022-10-28T04:09:04;13.43;;;6.70;;
1701;SDS011;848;48.354;10.064;2022-10-28T04:11:31;22.17;;;6.78;;
1701;SDS011;848;48.354;10.064;2022-10-28T04:13:59;13.77;;;6.65;;
1701;SDS011;848;48.354;10.064;2022-10-28T04:16:26;12.45;;;7.03;;
1701;SDS011;848;48.354;10.064;2022-10-28T04:18:53;12.20;;;6.65;;
1701;SDS011;848;48.354;10.064;2022-10-28T04:21:20;14.20;;;6.00;;
1701;SDS011;848;48.354;10.064;2022-10-28T04:23:47;12.52;;;6.35;;
1701;SDS011;848;48.354;10.064;2022-10-28T04:26:14;13.95;;;7.00;;
1701;SDS011;848;48.354;10.064;2022-10-28T04:28:41;15.55;;;6.82;;
1701;SDS011;848;48.354;10.064;2022-10-28T04:31:09;14.40;;;8.27;;
1701;SDS011;848;48.354;10.064;2022-10-28T04:33:36;12.95;;;6.93;;
1701;SDS011;848;48.354;10.064;2022-10-28T04:36:03;17.95;;;6.90;;
1701;SDS011;848;48.354;10.064;2022-10-28T04:38:31;13.57;;;6.80;;
1701;SDS011;848;48.354;10.064;2022-10-28T04:40:57;15.20;;;7.35;;
1701;SDS011;848;48.354;10.064;2022-10-28T04:43:24;13.15;;;7.25;;
1701;SDS011;848;48.354;10.064;2022-10-28T04:45:51;22.17;;;8.50;;
1701;SDS011;848;48.354;10.064;2022-10-28T04:48:20;14.25;;;7.03;;
1701;SDS011;848;48.354;10.064;2022-10-28T04:50:46;14.30;;;7.25;;
1701;SDS011;848;48.354;10.064;2022-10-28T04:53:13;15.32;;;6.93;;
1701;SDS011;848;48.354;10.064;2022-10-28T04:55:40;12.43;;;7.13;;
1701;SDS011;848;48.354;10.064;2022-10-28T04:58:08;13.77;;;6.95;;
1701;SDS011;848;48.354;10.064;2022-10-28T05:00:35;12.65;;;7.30;;
1701;SDS011;848;48.354;10.064;2022-10-28T05:03:02;12.52;;;6.50;;
1701;SDS011;848;48.354;10.064;2022-10-28T05:05:30;15.98;;;6.90;;
1701;SDS011;848;48.354;10.064;2022-10-28T05:07:57;13.93;;;7.78;;
1701;SDS011;848;48.354;10.064;2022-10-28T05:10:24;12.75;;;6.78;;
1701;SDS011;848;48.354;10.064;2022-10-28T05:12:51;14.10;;;7.25;;
1701;SDS011;848;48.354;10.064;2022-10-28T05:15:18;11.50;;;5.65;;
1701;SDS011;848;48.354;10.064;2022-10-28T05:17:45;14.20;;;6.80;;
1701;SDS011;848;48.354;10.064;2022-10-28T05:20:13;12.02;;;6.00;;
1701;SDS011;848;48.354;10.064;2022-10-28T05:22:46;14.07;;;6.60;;
1701;SDS011;848;48.354;10.064;2022-10-28T05:25:14;11.48;;;6.10;;
1701;SDS011;848;48.354;10.064;2022-10-28T05:27:45;17.92;;;7.50;;
1701;SDS011;848;48.354;10.064;2022-10-28T05:30:12;13.70;;;6.30;;
1701;SDS011;848;48.354;10.064;2022-10-28T05:32:39;13.27;;;7.07;;
1701;SDS011;848;48.354;10.064;2022-10-28T05:35:07;11.20;;;5.03;;
1701;SDS011;848;48.354;10.064;2022-10-28T05:37:34;13.63;;;6.60;;
1701;SDS011;848;48.354;10.064;2022-10-28T05:40:03;14.82;;;6.03;;
1701;SDS011;848;48.354;10.064;2022-10-28T05:42:30;16.38;;;6.88;;
1701;SDS011;848;48.354;10.064;2022-10-28T05:44:57;13.45;;;6.65;;
1701;SDS011;848;48.354;10.064;2022-10-28T05:47:24;15.60;;;5.90;;
1701;SDS011;848;48.354;10.064;2022-10-28T05:49:51;14.68;;;6.43;;
1701;SDS011;848;48.354;10.064;2022-10-28T05:52:18;11.90;;;6.05;;
1701;SDS011;848;48.354;10.064;2022-10-28T05:54:45;14.52;;;6.47;;
1701;SDS011;848;48.354;10.064;2022-10-28T05:57:15;11.43;;;6.70;;
1701;SDS011;848;48.354;10.064;2022-10-28T05:59:42;11.23;;;5.90;;
1701;SDS011;848;48.354;10.064;2022-10-28T06:02:11;12.07;;;6.60;;
1701;SDS011;848;48.354;10.064;2022-10-28T06:04:39;12.18;;;6.07;;
1701;SDS011;848;48.354;10.064;2022-10-28T06:07:06;16.77;;;7.20;;
1701;SDS011;848;48.354;10.064;2022-10-28T06:09:33;12.70;;;5.75;;
1701;SDS011;848;48.354;10.064;2022-10-28T06:12:02;14.32;;;7.30;;
1701;SDS011;848;48.354;10.064;2022-10-28T06:14:33;13.00;;;5.88;;
1701;SDS011;848;48.354;10.064;2022-10-28T06:17:00;12.60;;;6.65;;
1701;SDS011;848;48.354;10.064;2022-10-28T06:19:28;13.57;;;6.82;;
1701;SDS011;848;48.354;10.064;2022-10-28T06:21:55;17.48;;;6.90;;
1701;SDS011;848;48.354;10.064;2022-10-28T06:24:22;17.25;;;7.75;;
1701;SDS011;848;48.354;10.064;2022-10-28T06:26:49;11.70;;;5.95;;
1701;SDS011;848;48.354;10.064;2022-10-28T06:29:16;11.25;;;5.85;;
1701;SDS011;848;48.354;10.064;2022-10-28T06:31:45;12.65;;;6.75;;
1701;SDS011;848;48.354;10.064;2022-10-28T06:34:12;21.02;;;7.32;;
1701;SDS011;848;48.354;10.064;2022-10-28T06:36:39;12.80;;;7.25;;
1701;SDS011;848;48.354;10.064;2022-10-28T06:39:06;15.10;;;7.50;;
1701;SDS011;848;48.354;10.064;2022-10-28T06:41:33;22.60;;;7.38;;
1701;SDS011;848;48.354;10.064;2022-10-28T06:44:00;13.88;;;6.82;;
1701;SDS011;848;48.354;10.064;2022-10-28T06:46:27;13.55;;;6.90;;
1701;SDS011;848;48.354;10.064;2022-10-28T06:48:56;16.35;;;6.13;;
1701;SDS011;848;48.354;10.064;2022-10-28T06:51:23;15.52;;;7.32;;
1701;SDS011;848;48.354;10.064;2022-10-28T06:53:50;13.27;;;6.07;;
1701;SDS011;848;48.354;10.064;2022-10-28T06:56:17;13.18;;;5.85;;
1701;SDS011;848;48.354;10.064;2022-10-28T06:58:48;14.27;;;6.20;;
1701;SDS011;848;48.354;10.064;2022-10-28T07:01:16;18.08;;;6.22;;
1701;SDS011;848;48.354;10.064;2022-10-28T07:03:43;12.82;;;5.80;;
1701;SDS011;848;48.354;10.064;2022-10-28T07:06:11;11.60;;;5.90;;
1701;SDS011;848;48.354;10.064;2022-10-28T07:08:38;16.27;;;6.43;;
1701;SDS011;848;48.354;10.064;2022-10-28T07:11:05;12.38;;;5.05;;
1701;SDS011;848;48.354;10.064;2022-10-28T07:13:33;13.23;;;6.05;;
1701;SDS011;848;48.354;10.064;2022-10-28T07:16:00;14.18;;;5.18;;
1701;SDS011;848;48.354;10.064;2022-10-28T07:18:27;14.85;;;5.38;;
1701;SDS011;848;48.354;10.064;2022-10-28T07:20:56;17.20;;;6.63;;
1701;SDS011;848;48.354;10.064;2022-10-28T07:23:25;16.02;;;5.50;;
1701;SDS011;848;48.354;10.064;2022-10-28T07:25:52;14.00;;;5.70;;
1701;SDS011;848;48.354;10.064;2022-10-28T07:28:20;11.30;;;5.53;;
1701;SDS011;848;48.354;10.064;2022-10-28T07:30:47;12.32;;;6.50;;
1701;SDS011;848;48.354;10.064;2022-10-28T07:33:14;11.18;;;5.95;;
1701;SDS011;848;48.354;10.064;2022-10-28T07:35:41;13.23;;;5.65;;
1701;SDS011;848;48.354;10.064;2022-10-28T07:38:08;12.20;;;5.65;;
1701;SDS011;848;48.354;10.064;2022-10-28T07:40:36;11.68;;;5.35;;
1701;SDS011;848;48.354;10.064;2022-10-28T07:43:03;13.63;;;4.80;;
1701;SDS011;848;48.354;10.064;2022-10-28T07:45:30;12.57;;;5.10;;
1701;SDS011;848;48.354;10.064;2022-10-28T07:47:57;14.32;;;4.95;;
1701;SDS011;848;48.354;10.064;2022-10-28T07:50:24;16.38;;;5.90;;
1701;SDS011;848;48.354;10.064;2022-10-28T07:52:51;12.10;;;4.93;;
1701;SDS011;848;48.354;10.064;2022-10-28T07:55:18;10.32;;;5.15;;
1701;SDS011;848;48.354;10.064;2022-10-28T07:57:47;10.77;;;4.88;;
1701;SDS011;848;48.354;10.064;2022-10-28T08:00:14;10.13;;;4.57;;
1701;SDS011;848;48.354;10.064;2022-10-28T08:02:41;14.52;;;5.20;;
1701;SDS011;848;48.354;10.064;2022-10-28T08:05:08;10.07;;;4.63;;
1701;SDS011;848;48.354;10.064;2022-10-28T08:07:35;9.90;;;4.68;;
1701;SDS011;848;48.354;10.064;2022-10-28T08:10:03;13.73;;;6.30;;
1701;SDS011;848;48.354;10.064;2022-10-28T08:12:30;12.50;;;5.20;;
1701;SDS011;848;48.354;10.064;2022-10-28T08:14:58;9.93;;;4.57;;
1701;SDS011;848;48.354;10.064;2022-10-28T08:17:26;9.95;;;4.70;;
1701;SDS011;848;48.354;10.064;2022-10-28T08:19:53;16.50;;;5.07;;
1701;SDS011;848;48.354;10.064;2022-10-28T08:22:20;13.48;;;5.10;;
1701;SDS011;848;48.354;10.064;2022-10-28T08:24:47;11.70;;;4.75;;
1701;SDS011;848;48.354;10.064;2022-10-28T08:27:14;15.63;;;5.53;;
1701;SDS011;848;48.354;10.064;2022-10-28T08:29:41;10.23;;;5.10;;
1701;SDS011;848;48.354;10.064;2022-10-28T08:32:09;15.57;;;5.43;;
1701;SDS011;848;48.354;10.064;2022-10-28T08:34:36;9.45;;;4.35;;
1701;SDS011;848;48.354;10.064;2022-10-28T08:37:02;10.95;;;4.75;;
1701;SDS011;848;48.354;10.064;2022-10-28T08:39:29;9.93;;;4.63;;
1701;SDS011;848;48.354;10.064;2022-10-28T08:41:59;16.25;;;5.60;;
1701;SDS011;848;48.354;10.064;2022-10-28T08:44:47;13.13;;;5.40;;
1701;SDS011;848;48.354;10.064;2022-10-28T08:47:35;9.00;;;4.32;;
1701;SDS011;848;48.354;10.064;2022-10-28T08:50:10;10.30;;;4.28;;
1701;SDS011;848;48.354;10.064;2022-10-28T08:52:40;9.82;;;5.00;;
1701;SDS011;848;48.354;10.064;2022-10-28T08:55:11;14.15;;;5.50;;
1701;SDS011;848;48.354;10.064;2022-10-28T08:57:42;12.18;;;5.28;;
1701;SDS011;848;48.354;10.064;2022-10-28T09:00:16;12.25;;;4.90;;
1701;SDS011;848;48.354;10.064;2022-10-28T09:02:52;10.32;;;5.10;;
1701;SDS011;848;48.354;10.064;2022-10-28T09:05:27;11.45;;;4.72;;
1701;SDS011;848;48.354;10.064;2022-10-28T09:07:54;12.63;;;5.05;;
1701;SDS011;848;48.354;10.064;2022-10-28T09:10:29;23.00;;;5.40;;
1701;SDS011;848;48.354;10.064;2022-10-28T09:13:17;13.50;;;4.78;;
1701;SDS011;848;48.354;10.064;2022-10-28T09:15:56;10.38;;;4.28;;
1701;SDS011;848;48.354;10.064;2022-10-28T09:18:35;13.18;;;4.60;;
1701;SDS011;848;48.354;10.064;2022-10-28T09:21:17;10.80;;;4.30;;
1701;SDS011;848;48.354;10.064;2022-10-28T09:23:48;16.27;;;4.38;;
1701;SDS011;848;48.354;10.064;2022-10-28T09:26:22;15.68;;;5.28;;
1701;SDS011;848;48.354;10.064;2022-10-28T09:28:58;10.48;;;4.95;;
1701;SDS011;848;48.354;10.064;2022-10-28T09:31:36;11.27;;;4.18;;
1701;SDS011;848;48.354;10.064;2022-10-28T09:34:09;14.48;;;4.93;;
1701;SDS011;848;48.354;10.064;2022-10-28T09:36:47;11.70;;;4.55;;
1701;SDS011;848;48.354;10.064;2022-10-28T09:39:19;9.95;;;3.85;;
1701;SDS011;848;48.354;10.064;2022-10-28T09:41:52;15.88;;;4.80;;
1701;SDS011;848;48.354;10.064;2022-10-28T09:44:24;15.15;;;5.45;;
1701;SDS011;848;48.354;10.064;2022-10-28T09:46:56;13.30;;;4.60;;
1701;SDS011;848;48.354;10.064;2022-10-28T09:49:27;16.15;;;3.95;;
1701;SDS011;848;48.354;10.064;2022-10-28T09:52:00;12.95;;;4.75;;
1701;SDS011;848;48.354;10.064;2022-10-28T09:54:35;13.38;;;4.32;;
1701;SDS011;848;48.354;10.064;2022-10-28T09:57:04;15.70;;;4.20;;
1701;SDS011;848;48.354;10.064;2022-10-28T09:59:32;14.38;;;4.55;;
1701;SDS011;848;48.354;10.064;2022-10-28T10:01:59;11.88;;;4.47;;
1701;SDS011;848;48.354;10.064;2022-10-28T10:04:29;16.52;;;6.30;;
1701;SDS011;848;48.354;10.064;2022-10-28T10:06:56;11.38;;;3.22;;
1701;SDS011;848;48.354;10.064;2022-10-28T10:09:29;14.10;;;4.18;;
1701;SDS011;848;48.354;10.064;2022-10-28T10:11:58;11.73;;;4.05;;
1701;SDS011;848;48.354;10.064;2022-10-28T10:14:30;12.88;;;3.78;;
1701;SDS011;848;48.354;10.064;2022-10-28T10:17:03;9.90;;;4.03;;
1701;SDS011;848;48.354;10.064;2022-10-28T10:22:32;23.40;;;4.68;;
1701;SDS011;848;48.354;10.064;2022-10-28T10:25:01;12.48;;;3.40;;
1701;SDS011;848;48.354;10.064;2022-10-28T10:27:29;12.30;;;4.32;;
1701;SDS011;848;48.354;10.064;2022-10-28T10:29:56;14.73;;;4.00;;
1701;SDS011;848;48.354;10.064;2022-10-28T10:32:24;9.20;;;3.60;;
1701;SDS011;848;48.354;10.064;2022-10-28T10:34:58;9.77;;;4.07;;
1701;SDS011;848;48.354;10.064;2022-10-28T10:37:28;9.23;;;3.60;;
1701;SDS011;848;48.354;10.064;2022-10-28T10:40:00;9.55;;;3.53;;
1701;SDS011;848;48.354;10.064;2022-10-28T10:42:41;9.23;;;3.95;;
1701;SDS011;848;48.354;10.064;2022-10-28T10:45:14;10.32;;;3.90;;
1701;SDS011;848;48.354;10.064;2022-10-28T10:47:47;9.27;;;3.85;;
1701;SDS011;848;48.354;10.064;2022-10-28T10:50:21;9.90;;;3.60;;
1701;SDS011;848;48.354;10.064;2022-10-28T10:52:54;10.50;;;3.83;;
1701;SDS011;848;48.354;10.064;2022-10-28T10:55:27;13.88;;;4.45;;
1701;SDS011;848;48.354;10.064;2022-10-28T10:57:58;10.95;;;4.28;;
1701;SDS011;848;48.354;10.064;2022-10-28T11:00:27;11.55;;;3.88;;
1701;SDS011;848;48.354;10.064;2022-10-28T11:02:58;11.85;;;3.95;;
1701;SDS011;848;48.354;10.064;2022-10-28T11:05:26;12.05;;;3.55;;
1701;SDS011;848;48.354;10.064;2022-10-28T11:07:53;13.85;;;4.03;;
1701;SDS011;848;48.354;10.064;2022-10-28T11:10:30;9.23;;;3.90;;
1701;SDS011;848;48.354;10.064;2022-10-28T11:13:00;11.77;;;4.85;;
1701;SDS011;848;48.354;10.064;2022-10-28T11:15:47;13.55;;;4.50;;
1701;SDS011;848;48.354;10.064;2022-10-28T11:18:25;13.57;;;3.70;;
1701;SDS011;848;48.354;10.064;2022-10-28T11:20:57;14.20;;;3.90;;
1701;SDS011;848;48.354;10.064;2022-10-28T11:23:34;11.40;;;4.15;;
1701;SDS011;848;48.354;10.064;2022-10-28T11:26:09;11.07;;;4.70;;
1701;SDS011;848;48.354;10.064;2022-10-28T11:28:45;20.25;;;4.38;;
1701;SDS011;848;48.354;10.064;2022-10-28T11:31:30;11.27;;;3.70;;
1701;SDS011;848;48.354;10.064;2022-10-28T11:34:17;13.50;;;4.90;;
1701;SDS011;848;48.354;10.064;2022-10-28T11:36:52;10.40;;;4.38;;
1701;SDS011;848;48.354;10.064;2022-10-28T11:39:30;8.82;;;3.60;;
1701;SDS011;848;48.354;10.064;2022-10-28T11:42:06;11.98;;;4.25;;
1701;SDS011;848;48.354;10.064;2022-10-28T11:44:44;12.13;;;3.90;;
1701;SDS011;848;48.354;10.064;2022-10-28T11:47:29;10.18;;;3.58;;
1701;SDS011;848;48.354;10.064;2022-10-28T11:50:11;10.18;;;3.72;;
1701;SDS011;848;48.354;10.064;2022-10-28T11:53:04;8.75;;;4.10;;
1701;SDS011;848;48.354;10.064;2022-10-28T11:56:02;14.23;;;4.10;;
1701;SDS011;848;48.354;10.064;2022-10-28T11:58:40;15.02;;;4.30;;
1701;SDS011;848;48.354;10.064;2022-10-28T12:04:07;13.02;;;4.60;;
1701;SDS011;848;48.354;10.064;2022-10-28T12:06:50;11.43;;;5.15;;
1701;SDS011;848;48.354;10.064;2022-10-28T12:09:41;14.43;;;4.93;;
1701;SDS011;848;48.354;10.064;2022-10-28T12:12:26;8.90;;;4.55;;
1701;SDS011;848;48.354;10.064;2022-10-28T12:15:02;10.02;;;3.95;;
1701;SDS011;848;48.354;10.064;2022-10-28T12:17:43;9.23;;;3.28;;
1701;SDS011;848;48.354;10.064;2022-10-28T12:20:14;10.40;;;3.47;;
1701;SDS011;848;48.354;10.064;2022-10-28T12:22:47;9.23;;;3.22;;
1701;SDS011;848;48.354;10.064;2022-10-28T12:25:19;10.57;;;3.40;;
1701;SDS011;848;48.354;10.064;2022-10-28T12:27:51;9.88;;;4.70;;
1701;SDS011;848;48.354;10.064;2022-10-28T12:30:23;9.80;;;3.17;;
1701;SDS011;848;48.354;10.064;2022-10-28T12:32:53;12.50;;;4.22;;
1701;SDS011;848;48.354;10.064;2022-10-28T12:35:24;13.52;;;3.85;;
1701;SDS011;848;48.354;10.064;2022-10-28T12:37:56;9.45;;;3.55;;
1701;SDS011;848;48.354;10.064;2022-10-28T12:40:30;9.23;;;3.38;;
1701;SDS011;848;48.354;10.064;2022-10-28T12:43:03;8.88;;;3.78;;
1701;SDS011;848;48.354;10.064;2022-10-28T12:45:38;12.57;;;3.72;;
1701;SDS011;848;48.354;10.064;2022-10-28T12:48:12;9.38;;;3.20;;
1701;SDS011;848;48.354;10.064;2022-10-28T12:50:45;9.48;;;3.60;;
1701;SDS011;848;48.354;10.064;2022-10-28T12:53:20;9.57;;;3.38;;
1701;SDS011;848;48.354;10.064;2022-10-28T12:55:55;9.25;;;3.15;;
1701;SDS011;848;48.354;10.064;2022-10-28T12:58:26;9.27;;;3.60;;
1701;SDS011;848;48.354;10.064;2022-10-28T13:00:59;10.02;;;3.30;;
1701;SDS011;848;48.354;10.064;2022-10-28T13:03:28;12.95;;;3.78;;
1701;SDS011;848;48.354;10.064;2022-10-28T13:06:00;8.20;;;3.00;;
1701;SDS011;848;48.354;10.064;2022-10-28T13:14:48;10.98;;;3.40;;
1701;SDS011;848;48.354;10.064;2022-10-28T13:17:35;10.13;;;3.65;;
1701;SDS011;848;48.354;10.064;2022-10-28T13:20:13;9.40;;;3.72;;
1701;SDS011;848;48.354;10.064;2022-10-28T13:22:50;7.85;;;2.95;;
1701;SDS011;848;48.354;10.064;2022-10-28T13:25:42;16.40;;;3.67;;
1701;SDS011;848;48.354;10.064;2022-10-28T13:28:24;13.25;;;3.50;;
1701;SDS011;848;48.354;10.064;2022-10-28T13:30:57;9.00;;;3.10;;
1701;SDS011;848;48.354;10.064;2022-10-28T13:33:27;9.70;;;3.10;;
1701;SDS011;848;48.354;10.064;2022-10-28T13:36:05;12.85;;;2.85;;
1701;SDS011;848;48.354;10.064;2022-10-28T13:38:37;12.35;;;3.70;;
1701;SDS011;848;48.354;10.064;2022-10-28T13:41:10;16.58;;;3.55;;
1701;SDS011;848;48.354;10.064;2022-10-28T13:43:59;10.73;;;3.25;;
1701;SDS011;848;48.354;10.064;2022-10-28T13:47:00;10.93;;;2.95;;
1701;SDS011;848;48.354;10.064;2022-10-28T13:49:30;9.93;;;2.90;;
1701;SDS011;848;48.354;10.064;2022-10-28T13:52:01;13.80;;;4.15;;
1701;SDS011;848;48.354;10.064;2022-10-28T13:54:53;9.48;;;2.92;;
1701;SDS011;848;48.354;10.064;2022-10-28T13:57:24;10.32;;;3.60;;
1701;SDS011;848;48.354;10.064;2022-10-28T13:59:54;11.23;;;3.83;;
1701;SDS011;848;48.354;10.064;2022-10-28T14:02:26;10.35;;;2.95;;
1701;SDS011;848;48.354;10.064;2022-10-28T14:04:57;11.70;;;3.10;;
1701;SDS011;848;48.354;10.064;2022-10-28T14:07:26;11.60;;;3.08;;
1701;SDS011;848;48.354;10.064;2022-10-28T14:09:56;10.48;;;3.60;;
1701;SDS011;848;48.354;10.064;2022-10-28T14:12:38;9.35;;;3.15;;
1701;SDS011;848;48.354;10.064;2022-10-28T14:15:17;8.68;;;2.78;;
1701;SDS011;848;48.354;10.064;2022-10-28T14:17:49;10.00;;;2.85;;
1701;SDS011;848;48.354;10.064;2022-10-28T14:20:27;12.02;;;3.70;;
1701;SDS011;848;48.354;10.064;2022-10-28T14:23:13;10.52;;;3.63;;
1701;SDS011;848;48.354;10.064;2022-10-28T14:26:19;11.07;;;3.38;;
1701;SDS011;848;48.354;10.064;2022-10-28T14:28:52;8.93;;;2.10;;
1701;SDS011;848;48.354;10.064;2022-10-28T14:31:34;10.23;;;2.83;;
1701;SDS011;848;48.354;10.064;2022-10-28T14:37:33;10.75;;;3.25;;
1701;SDS011;848;48.354;10.064;2022-10-28T14:40:20;10.93;;;3.60;;
1701;SDS011;848;48.354;10.064;2022-10-28T14:43:00;10.75;;;3.42;;
1701;SDS011;848;48.354;10.064;2022-10-28T14:45:53;10.15;;;3.50;;
1701;SDS011;848;48.354;10.064;2022-10-28T14:51:13;10.70;;;3.00;;
1701;SDS011;848;48.354;10.064;2022-10-28T14:53:43;9.80;;;2.90;;
1701;SDS011;848;48.354;10.064;2022-10-28T14:56:15;10.32;;;2.92;;
1701;SDS011;848;48.354;10.064;2022-10-28T14:58:47;8.70;;;3.20;;
1701;SDS011;848;48.354;10.064;2022-10-28T15:04:11;9.95;;;2.85;;
1701;SDS011;848;48.354;10.064;2022-10-28T15:06:39;12.15;;;2.95;;
1701;SDS011;848;48.354;10.064;2022-10-28T15:09:18;10.80;;;3.42;;
1701;SDS011;848;48.354;10.064;2022-10-28T15:11:48;11.60;;;3.22;;
1701;SDS011;848;48.354;10.064;2022-10-28T15:14:24;10.55;;;3.40;;
1701;SDS011;848;48.354;10.064;2022-10-28T15:16:58;9.50;;;3.10;;
1701;SDS011;848;48.354;10.064;2022-10-28T15:19:34;9.48;;;2.75;;
1701;SDS011;848;48.354;10.064;2022-10-28T15:22:12;9.18;;;3.22;;
1701;SDS011;848;48.354;10.064;2022-10-28T15:24:58;10.20;;;3.20;;
1701;SDS011;848;48.354;10.064;2022-10-28T15:27:27;11.90;;;3.10;;
1701;SDS011;848;48.354;10.064;2022-10-28T15:29:55;13.52;;;3.95;;
1701;SDS011;848;48.354;10.064;2022-10-28T15:32:24;16.83;;;3.97;;
1701;SDS011;848;48.354;10.064;2022-10-28T15:34:52;16.05;;;4.15;;
1701;SDS011;848;48.354;10.064;2022-10-28T15:37:19;12.07;;;3.80;;
1701;SDS011;848;48.354;10.064;2022-10-28T15:39:48;12.75;;;4.72;;
1701;SDS011;848;48.354;10.064;2022-10-28T15:42:36;9.15;;;3.70;;
1701;SDS011;848;48.354;10.064;2022-10-28T15:45:11;18.40;;;4.05;;
1701;SDS011;848;48.354;10.064;2022-10-28T15:47:43;12.65;;;5.40;;
1701;SDS011;848;48.354;10.064;2022-10-28T15:50:22;10.57;;;5.32;;
1701;SDS011;848;48.354;10.064;2022-10-28T15:52:52;10.98;;;4.03;;
1701;SDS011;848;48.354;10.064;2022-10-28T15:55:28;10.15;;;3.80;;
1701;SDS011;848;48.354;10.064;2022-10-28T15:57:58;10.27;;;3.88;;